createdAt,value
2024-04-21T00:01:31.480Z,93.95
2024-04-21T00:04:03.384Z,93.41
2024-04-21T00:06:33.845Z,93.81
2024-04-21T00:09:04.345Z,94.16
2024-04-21T00:11:34.747Z,94.18
2024-04-21T00:14:05.304Z,94.00
2024-04-21T00:16:35.653Z,94.28
2024-04-21T00:19:06.223Z,94.61
2024-04-21T00:21:36.796Z,94.78
2024-04-21T00:24:07.387Z,94.61
2024-04-21T00:26:37.650Z,94.73
2024-04-21T00:29:09.266Z,94.47
2024-04-21T00:31:41.050Z,94.53
2024-04-21T00:34:11.824Z,95.06
2024-04-21T00:36:45.916Z,95.75
2024-04-21T00:39:16.312Z,95.25
2024-04-21T00:41:46.722Z,95.64
2024-04-21T00:44:17.078Z,95.28
2024-04-21T00:46:47.743Z,96.41
2024-04-21T00:49:18.321Z,95.48
2024-04-21T00:51:49.464Z,96.23
2024-04-21T00:54:20.117Z,96.56
2024-04-21T00:56:51.500Z,97.03
2024-04-21T00:59:21.429Z,96.21
2024-04-21T01:01:52.815Z,96.99
2024-04-21T01:04:24.794Z,97.26
2024-04-21T01:06:55.175Z,97.12
2024-04-21T01:09:25.566Z,97.51
2024-04-21T01:11:55.882Z,97.75
2024-04-21T01:14:26.343Z,97.78
2024-04-21T01:16:56.502Z,97.71
2024-04-21T01:19:26.970Z,97.14
2024-04-21T01:21:57.289Z,97.32
2024-04-21T01:24:27.749Z,97.53
2024-04-21T01:26:58.311Z,98.53
2024-04-21T01:29:28.725Z,99.05
2024-04-21T01:31:58.905Z,99.07
2024-04-21T01:34:29.416Z,98.66
2024-04-21T01:36:59.872Z,98.31
2024-04-21T01:39:30.345Z,98.87
2024-04-21T01:42:00.487Z,99.24
2024-04-21T01:44:30.943Z,99.13
2024-04-21T01:47:01.350Z,99.14
2024-04-21T01:49:31.907Z,99.23
2024-04-21T01:52:02.306Z,98.84
2024-04-21T01:54:32.796Z,98.69
2024-04-21T01:57:03.137Z,99.53
2024-04-21T01:59:33.531Z,99.81
2024-04-21T02:02:03.828Z,99.79
2024-04-21T02:04:35.304Z,99.68
2024-04-21T02:07:07.516Z,99.75
2024-04-21T02:09:38.627Z,99.99
2024-04-21T02:12:09.257Z,99.99
2024-04-21T02:14:39.915Z,99.99
2024-04-21T02:17:10.361Z,99.99
2024-04-21T02:19:40.818Z,99.99
2024-04-21T02:22:11.217Z,99.99
2024-04-21T02:24:45.758Z,99.99
2024-04-21T02:27:16.699Z,99.99
2024-04-21T02:29:47.131Z,99.99
2024-04-21T02:32:17.538Z,99.99
2024-04-21T02:34:48.394Z,99.99
2024-04-21T02:37:18.815Z,99.99
2024-04-21T02:39:49.350Z,99.99
2024-04-21T02:42:20.574Z,99.99
2024-04-21T02:44:50.928Z,99.99
2024-04-21T02:47:21.289Z,99.99
2024-04-21T02:49:52.010Z,99.99
2024-04-21T02:52:22.369Z,99.99
2024-04-21T02:54:52.701Z,99.99
2024-04-21T02:57:23.131Z,99.99
2024-04-21T02:59:53.465Z,99.99
2024-04-21T03:02:23.674Z,99.99
2024-04-21T03:04:55.411Z,99.99
2024-04-21T03:07:25.742Z,99.99
2024-04-21T03:09:56.024Z,99.99
2024-04-21T03:12:26.378Z,99.99
2024-04-21T03:14:56.733Z,99.99
2024-04-21T03:17:27.162Z,99.99
2024-04-21T03:19:57.601Z,99.99
2024-04-21T03:22:27.958Z,99.99
2024-04-21T03:24:58.447Z,99.99
2024-04-21T03:27:28.621Z,99.99
2024-04-21T03:29:59.055Z,99.99
2024-04-21T03:32:29.460Z,99.99
2024-04-21T03:34:59.969Z,99.99
2024-04-21T03:37:30.338Z,99.99
2024-04-21T03:40:02.859Z,99.99
2024-04-21T03:42:33.246Z,99.99
2024-04-21T03:45:03.718Z,99.99
2024-04-21T03:47:34.291Z,99.99
2024-04-21T03:50:04.881Z,99.99
2024-04-21T03:52:35.258Z,99.99
2024-04-21T03:55:05.821Z,99.99
2024-04-21T03:57:36.334Z,99.99
2024-04-21T04:00:07.630Z,99.99
2024-04-21T04:02:38.648Z,99.99
2024-04-21T04:05:10.101Z,99.99
2024-04-21T04:07:40.410Z,99.99
2024-04-21T04:10:10.937Z,99.99
2024-04-21T04:12:47.630Z,99.99
2024-04-21T04:15:19.617Z,99.99
2024-04-21T04:17:50.228Z,99.99
2024-04-21T04:20:20.690Z,99.99
2024-04-21T04:22:51.115Z,99.99
2024-04-21T04:25:21.527Z,99.99
2024-04-21T04:27:51.800Z,99.99
2024-04-21T04:30:22.309Z,99.99
2024-04-21T04:32:52.719Z,99.99
2024-04-21T04:35:23.046Z,99.99
2024-04-21T04:37:55.362Z,99.99
2024-04-21T04:40:26.208Z,99.99
2024-04-21T04:42:56.723Z,99.99
2024-04-21T04:45:27.245Z,99.99
2024-04-21T04:47:57.567Z,99.99
2024-04-21T04:50:27.810Z,99.99
2024-04-21T04:52:59.241Z,99.99
2024-04-21T04:55:29.540Z,99.99
2024-04-21T04:57:59.702Z,99.99
2024-04-21T05:00:30.055Z,99.99
2024-04-21T05:03:00.398Z,99.99
2024-04-21T05:05:31.593Z,99.99
2024-04-21T05:08:01.938Z,99.99
2024-04-21T05:10:32.412Z,99.99
2024-04-21T05:13:02.901Z,99.99
2024-04-21T05:15:33.431Z,99.99
2024-04-21T05:18:03.945Z,99.99
2024-04-21T05:20:34.446Z,99.99
2024-04-21T05:23:04.834Z,99.99
2024-04-21T05:25:35.308Z,99.99
2024-04-21T05:28:05.885Z,99.99
2024-04-21T05:30:36.431Z,99.99
2024-04-21T05:33:07.015Z,99.99
2024-04-21T05:35:37.522Z,99.99
2024-04-21T05:38:07.997Z,99.99
2024-04-21T05:40:38.514Z,99.99
2024-04-21T05:43:08.991Z,99.99
2024-04-21T05:45:39.442Z,99.99
2024-04-21T05:48:10.500Z,99.99
2024-04-21T05:50:45.312Z,99.99
2024-04-21T05:53:15.719Z,99.99
2024-04-21T05:55:46.166Z,99.99
2024-04-21T05:58:16.678Z,99.99
2024-04-21T06:00:47.239Z,99.99
2024-04-21T06:03:17.622Z,99.99
2024-04-21T06:05:48.875Z,99.99
2024-04-21T06:08:19.247Z,99.99
2024-04-21T06:10:49.743Z,99.99
2024-04-21T06:13:20.190Z,99.99
2024-04-21T06:15:50.624Z,99.99
2024-04-21T06:18:20.937Z,99.99
2024-04-21T06:20:51.480Z,99.99
2024-04-21T06:23:21.895Z,99.99
2024-04-21T06:25:52.278Z,99.99
2024-04-21T06:28:22.829Z,99.99
2024-04-21T06:30:53.410Z,99.99
2024-04-21T06:33:23.842Z,99.99
2024-04-21T06:35:54.327Z,99.99
2024-04-21T06:38:24.729Z,99.99
2024-04-21T06:40:55.176Z,99.99
2024-04-21T06:43:25.938Z,99.99
2024-04-21T06:45:56.392Z,99.99
2024-04-21T06:48:26.882Z,99.99
2024-04-21T06:50:57.443Z,99.99
2024-04-21T06:53:27.932Z,99.99
2024-04-21T06:55:58.392Z,99.99
2024-04-21T06:58:28.813Z,99.99
2024-04-21T07:00:59.309Z,99.99
2024-04-21T07:03:29.720Z,99.99
2024-04-21T07:06:00.916Z,99.99
2024-04-21T07:08:31.315Z,99.99
2024-04-21T07:11:02.497Z,99.99
2024-04-21T07:13:32.572Z,99.99
2024-04-21T07:16:02.814Z,99.99
2024-04-21T07:18:33.491Z,99.99
2024-04-21T07:21:06.021Z,99.99
2024-04-21T07:23:36.639Z,99.99
2024-04-21T07:26:07.291Z,99.99
2024-04-21T07:28:37.654Z,99.99
2024-04-21T07:31:08.121Z,99.99
2024-04-21T07:33:38.432Z,99.99
2024-04-21T07:36:08.988Z,99.99
2024-04-21T07:38:39.368Z,99.99
2024-04-21T07:41:09.862Z,99.99
2024-04-21T07:43:40.243Z,99.99
2024-04-21T07:46:10.738Z,99.99
2024-04-21T07:48:41.184Z,99.99
2024-04-21T07:51:13.550Z,99.99
2024-04-21T07:53:45.353Z,99.99
2024-04-21T07:56:15.816Z,99.99
2024-04-21T07:58:46.193Z,99.99
2024-04-21T08:01:16.704Z,99.99
2024-04-21T08:03:46.984Z,99.99
2024-04-21T08:06:18.561Z,99.99
2024-04-21T08:08:53.306Z,99.99
2024-04-21T08:11:28.185Z,99.99
2024-04-21T08:13:58.580Z,99.99
2024-04-21T08:16:29.103Z,99.99
2024-04-21T08:18:59.527Z,99.99
2024-04-21T08:21:29.909Z,99.99
2024-04-21T08:24:00.298Z,99.99
2024-04-21T08:26:31.090Z,99.99
2024-04-21T08:29:01.484Z,99.99
2024-04-21T08:31:31.952Z,99.99
2024-04-21T08:34:02.978Z,99.99
2024-04-21T08:36:33.512Z,99.99
2024-04-21T08:39:04.038Z,99.99
2024-04-21T08:42:01.434Z,99.99
2024-04-21T08:44:33.204Z,99.99
2024-04-21T08:47:06.096Z,99.99
2024-04-21T08:49:36.712Z,99.99
2024-04-21T08:52:12.530Z,99.99
2024-04-21T08:54:43.001Z,99.99
2024-04-21T08:57:15.979Z,99.99
2024-04-21T08:59:46.942Z,99.99
2024-04-21T09:02:17.676Z,99.99
2024-04-21T09:04:48.227Z,99.99
2024-04-21T09:07:21.087Z,99.99
2024-04-21T09:09:51.555Z,99.99
2024-04-21T09:12:22.609Z,99.99
2024-04-21T09:14:53.227Z,99.99
2024-04-21T09:17:23.985Z,99.99
2024-04-21T09:19:55.276Z,99.99
2024-04-21T09:22:25.812Z,99.99
2024-04-21T09:24:56.533Z,99.99
2024-04-21T09:27:31.383Z,99.99
2024-04-21T09:30:03.800Z,99.99
2024-04-21T09:32:36.169Z,99.99
2024-04-21T09:35:07.142Z,99.99
2024-04-21T09:37:37.637Z,99.99
2024-04-21T09:40:08.830Z,99.99
2024-04-21T09:42:39.509Z,99.99
2024-04-21T09:45:11.176Z,99.99
2024-04-21T09:47:41.347Z,99.99
2024-04-21T09:50:14.091Z,99.99
2024-04-21T09:52:49.760Z,99.99
2024-04-21T09:55:22.060Z,99.99
2024-04-21T09:58:02.915Z,99.99
2024-04-21T10:00:34.358Z,99.99
2024-04-21T10:03:07.223Z,99.99
2024-04-21T10:05:38.757Z,99.99
2024-04-21T10:08:10.515Z,99.99
2024-04-21T10:10:42.736Z,99.99
2024-04-21T10:13:13.510Z,99.99
2024-04-21T10:15:45.165Z,99.99
2024-04-21T10:18:26.302Z,99.99
2024-04-21T10:20:56.992Z,99.99
2024-04-21T10:23:27.456Z,99.99
2024-04-21T10:25:57.838Z,99.99
2024-04-21T10:28:30.872Z,99.99
2024-04-21T10:31:11.267Z,99.99
2024-04-21T10:33:45.703Z,99.99
2024-04-21T10:36:22.871Z,99.99
2024-04-21T10:38:57.046Z,99.99
2024-04-21T10:41:27.999Z,99.99
2024-04-21T10:43:58.416Z,99.99
2024-04-21T10:46:32.006Z,99.99
2024-04-21T10:49:02.486Z,99.99
2024-04-21T10:51:36.313Z,99.99
2024-04-21T10:54:10.368Z,99.99
2024-04-21T10:56:40.977Z,99.99
2024-04-21T10:59:11.334Z,99.99
2024-04-21T11:01:41.841Z,99.99
2024-04-21T11:04:12.398Z,99.99
2024-04-21T11:06:42.986Z,99.99
2024-04-21T11:09:14.539Z,99.99
2024-04-21T11:11:44.413Z,99.99
2024-04-21T11:14:14.563Z,99.99
2024-04-21T11:16:52.560Z,99.99
2024-04-21T11:19:23.978Z,99.99
2024-04-21T11:21:54.475Z,99.99
2024-04-21T11:24:25.173Z,99.99
2024-04-21T11:26:55.623Z,99.99
2024-04-21T11:29:26.059Z,99.99
2024-04-21T11:31:56.493Z,99.99
2024-04-21T11:34:42.070Z,99.99
2024-04-21T11:37:22.293Z,99.99
2024-04-21T11:39:52.712Z,99.99
2024-04-21T11:42:23.054Z,99.99
2024-04-21T11:44:53.641Z,99.99
2024-04-21T11:47:24.775Z,99.99
2024-04-21T11:49:56.213Z,99.99
2024-04-21T11:52:26.659Z,99.99
2024-04-21T11:54:57.211Z,99.99
2024-04-21T11:57:27.564Z,99.99
2024-04-21T11:59:58.047Z,99.99
2024-04-21T12:02:29.246Z,99.99
2024-04-21T12:04:59.751Z,99.99
2024-04-21T12:07:30.341Z,99.99
2024-04-21T12:10:01.673Z,99.99
2024-04-21T12:12:32.132Z,99.99
2024-04-21T12:15:03.221Z,99.99
2024-04-21T12:17:33.667Z,99.99
2024-04-21T12:20:04.122Z,99.99
2024-04-21T12:22:34.602Z,99.99
2024-04-21T12:25:05.163Z,99.90
2024-04-21T12:27:35.481Z,99.66
2024-04-21T12:30:07.540Z,99.61
2024-04-21T12:32:38.087Z,98.89
2024-04-21T12:35:08.680Z,98.03
2024-04-21T12:37:39.089Z,97.22
2024-04-21T12:40:09.878Z,97.57
2024-04-21T12:42:40.778Z,97.51
2024-04-21T12:45:11.677Z,97.22
2024-04-21T12:47:42.664Z,97.19
2024-04-21T12:50:13.082Z,96.94
2024-04-21T12:52:44.622Z,96.67
2024-04-21T12:55:14.625Z,96.81
2024-04-21T12:57:44.788Z,95.96
2024-04-21T13:00:16.901Z,95.45
2024-04-21T13:02:47.379Z,95.09
2024-04-21T13:05:18.239Z,94.78
2024-04-21T13:07:48.626Z,94.36
2024-04-21T13:10:19.934Z,93.77
2024-04-21T13:12:50.516Z,92.77
2024-04-21T13:15:20.891Z,93.02
2024-04-21T13:17:52.424Z,93.15
2024-04-21T13:20:22.458Z,93.24
2024-04-21T13:22:54.146Z,93.57
2024-04-21T13:25:24.517Z,92.65
2024-04-21T13:27:54.950Z,92.67
2024-04-21T13:30:25.475Z,92.51
2024-04-21T13:32:56.052Z,93.09
2024-04-21T13:35:26.479Z,91.71
2024-04-21T13:37:56.913Z,91.07
2024-04-21T13:40:27.485Z,90.97
2024-04-21T13:42:57.981Z,91.07
2024-04-21T13:45:28.417Z,89.44
2024-04-21T13:47:58.653Z,88.07
2024-04-21T13:50:29.788Z,88.41
2024-04-21T13:53:00.172Z,87.13
2024-04-21T13:55:30.490Z,87.35
2024-04-21T13:58:00.939Z,86.01
2024-04-21T14:00:31.366Z,84.51
2024-04-21T14:03:01.624Z,83.14
2024-04-21T14:05:32.119Z,82.72
2024-04-21T14:08:02.461Z,81.54
2024-04-21T14:10:33.854Z,80.56
2024-04-21T14:13:04.627Z,80.35
2024-04-21T14:15:35.413Z,79.33
2024-04-21T14:18:06.047Z,78.05
2024-04-21T14:20:36.605Z,78.87
2024-04-21T14:23:07.123Z,78.28
2024-04-21T14:25:37.626Z,79.39
2024-04-21T14:28:08.172Z,78.29
2024-04-21T14:30:38.649Z,76.70
2024-04-21T14:33:09.304Z,77.63
2024-04-21T14:35:40.134Z,77.84
2024-04-21T14:38:10.585Z,78.00
2024-04-21T14:40:41.115Z,78.12
2024-04-21T14:43:13.186Z,77.94
2024-04-21T14:45:50.145Z,76.01
2024-04-21T14:48:21.073Z,75.62
2024-04-21T14:51:01.586Z,76.58
2024-04-21T14:53:32.206Z,76.97
2024-04-21T14:56:06.549Z,76.25
2024-04-21T14:58:36.939Z,76.05
2024-04-21T15:01:07.577Z,74.60
2024-04-21T15:03:38.026Z,75.03
2024-04-21T15:06:08.708Z,75.13
2024-04-21T15:08:39.099Z,75.26
2024-04-21T15:11:11.225Z,75.16
2024-04-21T15:13:41.730Z,74.74
2024-04-21T15:16:12.174Z,74.09
2024-04-21T15:18:42.559Z,74.07
2024-04-21T15:21:13.399Z,73.70
2024-04-21T15:23:43.763Z,72.13
2024-04-21T15:26:14.020Z,72.37
2024-04-21T15:28:44.458Z,73.02
2024-04-21T15:31:15.436Z,72.94
2024-04-21T15:33:45.803Z,72.78
2024-04-21T15:36:16.126Z,73.37
2024-04-21T15:38:46.595Z,71.84
2024-04-21T15:41:16.973Z,71.89
2024-04-21T15:43:47.315Z,69.97
2024-04-21T15:46:17.592Z,70.56
2024-04-21T15:48:48.016Z,70.72
2024-04-21T15:51:23.073Z,68.86
2024-04-21T15:53:53.568Z,69.36
2024-04-21T15:56:24.046Z,68.11
2024-04-21T15:58:54.338Z,69.33
2024-04-21T16:01:25.718Z,69.53
2024-04-21T16:03:56.174Z,69.05
2024-04-21T16:06:26.686Z,70.17
2024-04-21T16:08:57.073Z,66.76
2024-04-21T16:11:28.650Z,69.41
2024-04-21T16:13:59.109Z,68.27
2024-04-21T16:16:29.812Z,67.79
2024-04-21T16:19:00.262Z,68.84
2024-04-21T16:21:30.724Z,68.90
2024-04-21T16:24:01.668Z,67.37
2024-04-21T16:26:32.240Z,68.80
2024-04-21T16:29:02.592Z,67.46
2024-04-21T16:31:33.121Z,68.32
2024-04-21T16:34:03.657Z,67.17
2024-04-21T16:36:34.246Z,67.82
2024-04-21T16:39:04.977Z,67.65
2024-04-21T16:41:35.958Z,67.35
2024-04-21T16:44:06.723Z,68.37
2024-04-21T16:46:40.090Z,68.09
2024-04-21T16:49:10.918Z,67.38
2024-04-21T16:51:41.602Z,65.77
2024-04-21T16:54:12.387Z,65.78
2024-04-21T16:56:47.086Z,68.03
2024-04-21T16:59:18.385Z,65.88
2024-04-21T17:01:49.716Z,66.35
2024-04-21T17:04:20.426Z,67.20
2024-04-21T17:06:53.892Z,66.45
2024-04-21T17:09:24.666Z,67.17
2024-04-21T17:11:57.191Z,66.33
2024-04-21T17:14:27.513Z,66.59
2024-04-21T17:16:58.224Z,65.34
2024-04-21T17:19:30.789Z,63.13
2024-04-21T17:22:01.319Z,61.74
2024-04-21T17:24:31.886Z,61.41
2024-04-21T17:27:02.345Z,62.50
2024-04-21T17:29:32.791Z,60.98
2024-04-21T17:32:03.302Z,59.29
2024-04-21T17:34:33.650Z,59.68
2024-04-21T17:37:04.055Z,58.58
2024-04-21T17:39:34.119Z,58.95
2024-04-21T17:42:04.473Z,56.39
2024-04-21T17:44:34.813Z,55.45
2024-04-21T17:47:05.429Z,54.83
2024-04-21T17:49:35.887Z,54.89
2024-04-21T17:52:07.753Z,53.85
2024-04-21T17:54:43.041Z,55.04
2024-04-21T17:57:18.992Z,53.67
2024-04-21T17:59:51.202Z,55.36
2024-04-21T18:02:21.620Z,53.38
2024-04-21T18:04:54.025Z,53.60
2024-04-21T18:07:27.191Z,53.67
2024-04-21T18:09:59.158Z,53.29
2024-04-21T18:12:32.041Z,52.18
2024-04-21T18:15:02.594Z,52.20
2024-04-21T18:17:33.152Z,51.42
2024-04-21T18:20:03.049Z,54.01
2024-04-21T18:22:33.515Z,50.30
2024-04-21T18:25:03.501Z,50.60
2024-04-21T18:27:33.619Z,51.03
2024-04-21T18:30:04.111Z,51.15
2024-04-21T18:32:34.506Z,51.45
2024-04-21T18:35:04.490Z,51.96
2024-04-21T18:37:34.597Z,49.00
2024-04-21T18:40:07.368Z,50.04
2024-04-21T18:42:37.998Z,49.93
2024-04-21T18:45:09.604Z,49.33
2024-04-21T18:47:40.020Z,49.44
2024-04-21T18:50:10.672Z,50.78
2024-04-21T18:52:40.605Z,50.83
2024-04-21T18:55:10.757Z,49.34
2024-04-21T18:57:41.256Z,49.40
2024-04-21T19:00:12.160Z,49.53
2024-04-21T19:02:42.666Z,53.01
2024-04-21T19:05:13.072Z,58.62
2024-04-21T19:07:43.481Z,60.13
2024-04-21T19:10:14.119Z,63.27
2024-04-21T19:12:45.903Z,63.54
2024-04-21T19:15:16.694Z,63.38
2024-04-21T19:17:47.530Z,61.75
2024-04-21T19:20:18.515Z,58.19
2024-04-21T19:22:49.174Z,60.34
2024-04-21T19:25:19.869Z,64.61
2024-04-21T19:27:49.968Z,66.15
2024-04-21T19:30:20.376Z,68.25
2024-04-21T19:32:50.829Z,68.03
2024-04-21T19:35:21.305Z,68.61
2024-04-21T19:37:51.525Z,68.12
2024-04-21T19:40:21.910Z,67.88
2024-04-21T19:42:52.364Z,67.94
2024-04-21T19:45:22.595Z,69.36
2024-04-21T19:47:53.233Z,70.23
2024-04-21T19:50:23.353Z,69.83
2024-04-21T19:52:53.473Z,68.84
2024-04-21T19:55:23.977Z,69.70
2024-04-21T19:57:54.397Z,69.75
2024-04-21T20:00:24.552Z,70.44
2024-04-21T20:02:54.991Z,70.63
2024-04-21T20:05:25.316Z,71.38
2024-04-21T20:07:55.565Z,72.89
2024-04-21T20:10:26.953Z,70.84
2024-04-21T20:12:58.336Z,71.85
2024-04-21T20:15:46.882Z,72.13
2024-04-21T20:18:37.826Z,73.38
2024-04-21T20:21:09.005Z,72.81
2024-04-21T20:23:39.432Z,73.23
2024-04-21T20:26:15.379Z,72.41
2024-04-21T20:28:45.794Z,73.55
2024-04-21T20:31:21.755Z,74.66
2024-04-21T20:33:52.542Z,75.18
2024-04-21T20:36:48.262Z,75.94
2024-04-21T20:39:18.757Z,76.88
2024-04-21T20:41:49.054Z,77.50
2024-04-21T20:44:19.590Z,77.92
2024-04-21T20:46:50.103Z,77.55
2024-04-21T20:49:20.533Z,78.10
2024-04-21T20:51:50.710Z,77.75
2024-04-21T20:54:21.723Z,78.47
2024-04-21T20:56:51.686Z,78.51
2024-04-21T20:59:23.560Z,79.97
2024-04-21T21:01:54.232Z,80.20
2024-04-21T21:04:24.839Z,80.56
2024-04-21T21:06:55.285Z,80.79
2024-04-21T21:09:25.788Z,81.05
2024-04-21T21:11:56.223Z,81.86
2024-04-21T21:14:32.467Z,82.22
2024-04-21T21:17:02.940Z,82.73
2024-04-21T21:19:33.809Z,82.76
2024-04-21T21:22:04.131Z,81.97
2024-04-21T21:24:34.526Z,82.47
2024-04-21T21:27:05.001Z,82.71
2024-04-21T21:29:35.479Z,83.54
2024-04-21T21:32:05.922Z,82.98
2024-04-21T21:34:36.493Z,83.67
2024-04-21T21:37:07.095Z,83.84
2024-04-21T21:39:37.530Z,84.98
2024-04-21T21:42:08.019Z,85.07
2024-04-21T21:44:38.510Z,85.65
2024-04-21T21:47:09.182Z,86.20
2024-04-21T21:49:39.755Z,86.22
2024-04-21T21:52:10.274Z,86.15
2024-04-21T21:54:40.908Z,87.18
2024-04-21T21:57:11.276Z,86.79
2024-04-21T21:59:41.705Z,86.94
2024-04-21T22:02:12.269Z,87.54
2024-04-21T22:04:42.781Z,87.55
2024-04-21T22:07:13.075Z,88.02
2024-04-21T22:09:43.573Z,88.36
2024-04-21T22:12:14.013Z,88.56
2024-04-21T22:14:45.735Z,88.98
2024-04-21T22:17:16.152Z,87.43
2024-04-21T22:19:48.418Z,86.60
2024-04-21T22:22:18.819Z,85.80
2024-04-21T22:24:49.329Z,85.52
2024-04-21T22:27:19.741Z,85.49
2024-04-21T22:29:50.301Z,85.12
2024-04-21T22:32:20.760Z,85.52
2024-04-21T22:34:55.445Z,86.85
2024-04-21T22:37:25.891Z,86.82
2024-04-21T22:39:56.488Z,87.16
2024-04-21T22:42:28.369Z,87.44
2024-04-21T22:44:58.899Z,87.26
2024-04-21T22:47:31.144Z,87.41
2024-04-21T22:50:02.065Z,87.42
2024-04-21T22:52:32.551Z,88.36
2024-04-21T22:55:03.387Z,87.72
2024-04-21T22:57:34.274Z,88.38
2024-04-21T23:00:04.812Z,88.52
2024-04-21T23:02:35.329Z,89.72
2024-04-21T23:05:05.960Z,88.92
2024-04-21T23:07:36.481Z,89.26
2024-04-21T23:10:07.356Z,88.24
2024-04-21T23:12:37.734Z,87.94
2024-04-21T23:15:10.207Z,88.25
2024-04-21T23:17:40.724Z,87.95
2024-04-21T23:20:11.633Z,88.42
2024-04-21T23:22:42.099Z,89.91
2024-04-21T23:25:12.808Z,89.75
2024-04-21T23:27:43.912Z,90.31
2024-04-21T23:30:14.781Z,91.43
2024-04-21T23:32:45.382Z,91.25
2024-04-21T23:35:15.977Z,91.63
2024-04-21T23:37:46.361Z,92.01
2024-04-21T23:40:16.936Z,92.45
2024-04-21T23:42:47.529Z,92.14
2024-04-21T23:45:18.480Z,92.70
2024-04-21T23:47:50.925Z,93.31
2024-04-21T23:50:21.515Z,93.32
2024-04-21T23:52:51.947Z,94.02
2024-04-21T23:55:22.774Z,93.69
2024-04-21T23:57:53.162Z,93.94
